Time;durP1;ratioP1;P1;durP2;ratioP2;P2;SDS_P1;SDS_P2;PMS_P1;PMS_P2;Temp;Humidity;BMP_temperature;BMP_pressure;BME280_temperature;BME280_humidity;BME280_pressure;Samples;Min_cycle;Max_cycle;Signal;HPM_P1;HPM_P2
2021/01/17 00:02:00;;;;;;;19.30;12.90;;;2.20;99.90;;;;;;5074703;28;20860;-77
2021/01/17 00:04:32;;;;;;;18.67;13.00;;;2.10;99.90;;;;;;5097247;28;20433;-76
2021/01/17 00:07:24;;;;;;;20.67;12.67;;;2.10;99.90;;;;;;5077791;27;21094;-76
2021/01/17 00:09:56;;;;;;;18.33;11.83;;;2.00;99.90;;;;;;5071883;28;20434;-76
2021/01/17 00:12:22;;;;;;;18.40;13.10;;;2.00;99.90;;;;;;5074705;28;20421;-76
2021/01/17 00:14:53;;;;;;;20.53;13.10;;;1.90;99.90;;;;;;5073834;28;20492;-77
2021/01/17 00:17:27;;;;;;;18.73;13.03;;;1.70;99.90;;;;;;5076733;28;20421;-77
2021/01/17 00:19:59;;;;;;;18.77;12.70;;;1.90;99.90;;;;;;5067960;28;20430;-76
2021/01/17 00:22:24;;;;;;;19.37;13.30;;;1.60;99.90;;;;;;5084665;28;20418;-76
2021/01/17 00:24:53;;;;;;;18.83;13.10;;;1.50;99.90;;;;;;5084389;28;20462;-76
2021/01/17 00:27:25;;;;;;;19.60;13.10;;;1.70;99.90;;;;;;5067138;28;20295;-77
2021/01/17 00:29:54;;;;;;;22.63;14.70;;;1.60;99.90;;;;;;5077837;28;20415;-76
2021/01/17 00:32:43;;;;;;;18.70;13.20;;;1.90;99.90;;;;;;5094499;28;20422;-76
2021/01/17 00:35:09;;;;;;;19.43;12.40;;;1.60;99.90;;;;;;5085131;28;20635;-77
2021/01/17 00:37:37;;;;;;;22.60;13.90;;;1.60;99.90;;;;;;5096917;28;20420;-76
2021/01/17 00:40:09;;;;;;;19.60;13.60;;;1.40;99.90;;;;;;5071917;28;20507;-77
2021/01/17 00:43:10;;;;;;;21.17;14.00;;;1.60;99.90;;;;;;5088830;28;20582;-77
2021/01/17 00:45:41;;;;;;;19.47;13.20;;;1.70;99.90;;;;;;5070509;28;20392;-77
2021/01/17 00:48:10;;;;;;;23.13;14.60;;;1.70;99.90;;;;;;5073945;28;20906;-77
2021/01/17 00:50:53;;;;;;;19.60;13.30;;;1.80;99.90;;;;;;5044042;28;20404;-77
2021/01/17 00:53:35;;;;;;;;;;;;;;;;;;;;;
2021/01/17 00:56:16;;;;;;;19.50;13.40;;;1.80;99.90;;;;;;5087329;28;20423;-76
2021/01/17 00:58:46;;;;;;;21.73;12.73;;;1.70;99.90;;;;;;5063908;28;20482;-77
2021/01/17 01:01:23;;;;;;;21.80;13.90;;;1.60;99.90;;;;;;5073916;28;20450;-77
2021/01/17 01:03:55;;;;;;;21.30;13.90;;;1.60;99.90;;;;;;5073832;28;20403;-76
2021/01/17 01:06:27;;;;;;;20.10;13.80;;;1.70;99.90;;;;;;5109540;27;20502;-76
2021/01/17 01:08:55;;;;;;;23.07;14.63;;;1.70;99.90;;;;;;5063641;28;20432;-77
2021/01/17 01:11:24;;;;;;;21.53;13.67;;;1.80;99.90;;;;;;5108333;28;20441;-77
2021/01/17 01:13:56;;;;;;;17.27;13.00;;;1.60;99.90;;;;;;5073080;28;20217;-76
2021/01/17 01:16:33;;;;;;;18.57;12.73;;;1.70;99.90;;;;;;5073140;28;21813;-76
2021/01/17 01:19:05;;;;;;;19.50;13.03;;;1.70;99.90;;;;;;5090227;28;20391;-76
2021/01/17 01:21:46;;;;;;;17.87;13.90;;;1.60;99.90;;;;;;5090192;28;20996;-76
2021/01/17 01:24:14;;;;;;;21.40;13.50;;;1.80;99.90;;;;;;5094911;28;20545;-77
2021/01/17 01:26:47;;;;;;;24.50;14.07;;;1.80;99.90;;;;;;5073040;28;20478;-76
2021/01/17 01:29:13;;;;;;;19.40;13.30;;;1.60;99.90;;;;;;5108340;28;20757;-76
2021/01/17 01:31:50;;;;;;;22.87;14.40;;;1.50;99.90;;;;;;5079897;28;20389;-76
2021/01/17 01:34:24;;;;;;;19.47;13.43;;;1.50;99.90;;;;;;5101130;28;20748;-77
2021/01/17 01:36:52;;;;;;;22.60;14.97;;;1.60;99.90;;;;;;5065084;28;21044;-77
2021/01/17 01:39:19;;;;;;;21.50;13.83;;;1.70;99.90;;;;;;5071061;28;20419;-77
2021/01/17 01:41:52;;;;;;;23.00;14.30;;;1.70;99.90;;;;;;5073390;28;20422;-76
2021/01/17 01:44:19;;;;;;;23.40;13.63;;;1.50;99.90;;;;;;5072924;28;20432;-76
2021/01/17 01:46:56;;;;;;;20.57;14.23;;;1.70;99.90;;;;;;5073557;28;20911;-76
2021/01/17 01:49:49;;;;;;;19.17;12.60;;;1.60;99.90;;;;;;5089189;28;20416;-77
2021/01/17 01:52:26;;;;;;;23.47;14.33;;;1.40;99.90;;;;;;5072483;28;21090;-76
2021/01/17 01:54:58;;;;;;;19.40;13.40;;;1.50;99.90;;;;;;5064924;28;20471;-77
2021/01/17 01:57:36;;;;;;;21.50;14.90;;;1.50;99.90;;;;;;5060059;28;20804;-76
2021/01/17 02:00:10;;;;;;;20.80;12.90;;;1.70;99.90;;;;;;5089270;28;20391;-76
2021/01/17 02:02:54;;;;;;;22.77;14.80;;;1.70;99.90;;;;;;5073071;28;20933;-77
2021/01/17 02:05:25;;;;;;;22.33;14.20;;;1.80;99.90;;;;;;5089214;28;20408;-78
2021/01/17 02:08:18;;;;;;;21.30;14.23;;;1.80;99.90;;;;;;5100020;28;20376;-78
2021/01/17 02:10:45;;;;;;;22.00;14.77;;;1.90;99.90;;;;;;5083693;28;20520;-77
2021/01/17 02:13:32;;;;;;;19.80;14.30;;;1.60;99.90;;;;;;5069715;28;20397;-77
2021/01/17 02:16:08;;;;;;;20.73;14.67;;;1.80;99.90;;;;;;5088069;28;20484;-77
2021/01/17 02:19:01;;;;;;;23.70;14.27;;;1.80;99.90;;;;;;5073587;28;20751;-77
2021/01/17 02:21:34;;;;;;;22.40;14.17;;;1.90;99.90;;;;;;5065283;28;20525;-77
2021/01/17 02:24:09;;;;;;;23.10;15.13;;;1.80;99.90;;;;;;5088434;28;20393;-77
2021/01/17 02:26:43;;;;;;;22.87;14.70;;;1.90;99.90;;;;;;5060983;28;20475;-76
2021/01/17 02:29:15;;;;;;;22.23;14.33;;;1.80;99.90;;;;;;5072232;28;20434;-77
2021/01/17 02:32:08;;;;;;;19.13;14.47;;;2.00;99.90;;;;;;5089242;28;20748;-77
2021/01/17 02:34:40;;;;;;;22.43;14.37;;;1.90;99.90;;;;;;5048926;28;20474;-77
2021/01/17 02:37:45;;;;;;;22.87;15.53;;;1.90;99.90;;;;;;5070811;28;20393;-77
2021/01/17 02:40:19;;;;;;;23.00;15.60;;;1.70;99.90;;;;;;5065058;28;20414;-77
2021/01/17 02:42:51;;;;;;;23.10;15.20;;;1.80;99.90;;;;;;5062364;28;20414;-77
2021/01/17 02:45:25;;;;;;;23.03;14.73;;;1.70;99.90;;;;;;5092880;28;20524;-77
2021/01/17 02:47:53;;;;;;;24.60;15.83;;;1.60;99.90;;;;;;5076562;28;20887;-77
2021/01/17 02:50:20;;;;;;;22.40;14.53;;;1.80;99.90;;;;;;5071783;28;20528;-77
2021/01/17 02:52:56;;;;;;;21.70;14.67;;;1.50;99.90;;;;;;5087149;28;20198;-77
2021/01/17 02:55:23;;;;;;;21.03;13.80;;;1.80;99.90;;;;;;5111991;27;20484;-77
2021/01/17 02:57:54;;;;;;;25.10;16.97;;;1.60;99.90;;;;;;5111278;28;20421;-76
2021/01/17 03:00:26;;;;;;;22.77;14.60;;;1.70;99.90;;;;;;5075727;28;20912;-77
2021/01/17 03:03:19;;;;;;;21.07;14.73;;;1.80;99.90;;;;;;5092294;28;20413;-78
2021/01/17 03:05:48;;;;;;;27.70;16.40;;;1.70;99.90;;;;;;5088444;28;20434;-77
2021/01/17 03:08:15;;;;;;;22.93;15.03;;;1.60;99.90;;;;;;5067125;28;20421;-78
2021/01/17 03:10:47;;;;;;;21.70;14.60;;;1.70;99.90;;;;;;5075318;28;20972;-77
2021/01/17 03:13:23;;;;;;;25.90;15.77;;;1.60;99.90;;;;;;5074814;28;20416;-77
2021/01/17 03:16:06;;;;;;;24.10;16.33;;;1.60;99.90;;;;;;5081210;28;20497;-77
2021/01/17 03:18:37;;;;;;;25.17;16.20;;;1.60;99.90;;;;;;5105012;28;20416;-77
2021/01/17 03:21:09;;;;;;;23.67;14.73;;;1.70;99.90;;;;;;5077889;27;20396;-77
2021/01/17 03:23:43;;;;;;;27.87;15.90;;;1.60;99.90;;;;;;5093760;28;20767;-77
2021/01/17 03:26:12;;;;;;;23.60;16.13;;;1.80;99.90;;;;;;5074964;28;20499;-78
2021/01/17 03:28:43;;;;;;;24.00;15.50;;;1.40;99.90;;;;;;5076500;28;20410;-77
2021/01/17 03:31:18;;;;;;;23.23;15.27;;;1.70;99.90;;;;;;5110057;28;20908;-77
2021/01/17 03:33:43;;;;;;;26.27;16.00;;;1.70;99.90;;;;;;5075297;28;20966;-77
2021/01/17 03:36:32;;;;;;;26.47;15.10;;;1.80;99.90;;;;;;5110482;28;20430;-77
2021/01/17 03:39:01;;;;;;;23.37;15.70;;;1.70;99.90;;;;;;5085063;28;20191;-77
2021/01/17 03:41:27;;;;;;;22.97;14.43;;;1.70;99.90;;;;;;5092730;28;20409;-77
2021/01/17 03:43:55;;;;;;;26.03;15.57;;;1.60;99.90;;;;;;5074866;28;20421;-78
2021/01/17 03:46:32;;;;;;;23.10;15.03;;;1.50;99.90;;;;;;5076005;28;20195;-78
2021/01/17 03:49:03;;;;;;;23.40;15.33;;;1.70;99.90;;;;;;5077878;28;20508;-78
2021/01/17 03:51:29;;;;;;;27.30;15.63;;;1.60;99.90;;;;;;5067232;28;20927;-78
2021/01/17 03:53:58;;;;;;;23.27;16.20;;;1.60;99.90;;;;;;5066304;27;20457;-78
2021/01/17 03:56:29;;;;;;;20.87;14.13;;;1.50;99.90;;;;;;5090683;28;20433;-77
2021/01/17 03:58:57;;;;;;;23.87;15.27;;;1.50;99.90;;;;;;5077155;28;20392;-78
2021/01/17 04:01:28;;;;;;;27.97;15.80;;;1.60;99.90;;;;;;5075637;28;20487;-77
2021/01/17 04:06:46;;;;;;;24.77;15.70;;;1.60;99.90;;;;;;5086952;28;20434;-78
2021/01/17 04:09:21;;;;;;;21.57;15.13;;;1.40;99.90;;;;;;5092450;28;20392;-78
2021/01/17 04:11:55;;;;;;;25.70;15.60;;;1.60;99.90;;;;;;5110476;28;20203;-78
2021/01/17 04:14:24;;;;;;;25.20;15.50;;;1.60;99.90;;;;;;5057649;28;21139;-78
2021/01/17 04:16:51;;;;;;;22.07;14.70;;;1.70;99.90;;;;;;5092139;28;20387;-77
2021/01/17 04:19:32;;;;;;;22.10;14.77;;;1.40;99.90;;;;;;5091149;28;20388;-78
2021/01/17 04:22:02;;;;;;;27.43;16.97;;;1.70;99.90;;;;;;5067872;28;20433;-78
2021/01/17 04:24:31;;;;;;;25.57;16.97;;;1.90;99.90;;;;;;5072734;28;20415;-78
2021/01/17 04:27:00;;;;;;;22.90;15.50;;;1.50;99.90;;;;;;5051838;28;20510;-78
2021/01/17 04:29:36;;;;;;;27.30;16.07;;;1.50;99.90;;;;;;5087209;27;20738;-78
2021/01/17 04:32:08;;;;;;;25.00;15.70;;;1.70;99.90;;;;;;5092137;28;20471;-78
2021/01/17 04:34:37;;;;;;;28.77;16.10;;;1.80;99.90;;;;;;5065378;28;20491;-78
2021/01/17 04:37:25;;;;;;;21.97;14.73;;;1.70;99.90;;;;;;5080546;28;20458;-78
2021/01/17 04:40:23;;;;;;;31.17;17.60;;;1.80;99.90;;;;;;5079344;28;20414;-78
2021/01/17 04:42:59;;;;;;;25.80;16.90;;;1.90;99.90;;;;;;5058856;28;20406;-78
2021/01/17 04:45:27;;;;;;;29.63;17.03;;;1.80;99.90;;;;;;5091510;28;20423;-78
2021/01/17 04:47:53;;;;;;;27.17;16.07;;;1.90;99.90;;;;;;5109915;28;20384;-78
2021/01/17 04:50:41;;;;;;;29.10;17.87;;;2.00;99.90;;;;;;5074842;28;20392;-78
2021/01/17 04:53:16;;;;;;;26.43;16.47;;;1.80;99.90;;;;;;5109000;27;20408;-78
2021/01/17 04:55:42;;;;;;;27.43;17.83;;;1.50;99.90;;;;;;5113648;27;21154;-77
2021/01/17 04:58:42;;;;;;;30.73;18.63;;;1.80;99.90;;;;;;5073787;28;20458;-77
2021/01/17 05:01:23;;;;;;;24.87;15.97;;;1.70;99.90;;;;;;5048620;28;20466;-77
2021/01/17 05:04:20;;;;;;;30.20;17.50;;;1.70;99.90;;;;;;5097068;28;20392;-78
2021/01/17 05:06:57;;;;;;;27.87;18.20;;;1.90;99.90;;;;;;5074282;28;20392;-78
2021/01/17 05:09:52;;;;;;;26.80;16.87;;;1.80;99.90;;;;;;5085687;28;20897;-78
2021/01/17 05:12:26;;;;;;;26.57;16.57;;;1.80;99.90;;;;;;5070790;28;20457;-78
2021/01/17 05:15:15;;;;;;;25.87;16.30;;;1.90;99.90;;;;;;5088554;28;20456;-78
2021/01/17 05:17:57;;;;;;;29.93;18.90;;;1.80;99.90;;;;;;5090603;28;20435;-78
2021/01/17 05:20:30;;;;;;;27.80;16.80;;;1.70;99.90;;;;;;5091592;28;20405;-78
2021/01/17 05:22:59;;;;;;;32.60;18.20;;;1.60;99.90;;;;;;5072047;28;20433;-78
2021/01/17 05:25:40;;;;;;;33.73;17.70;;;1.90;99.90;;;;;;5084610;28;20400;-78
2021/01/17 05:28:09;;;;;;;29.43;16.83;;;2.00;99.90;;;;;;5080741;28;20448;-78
2021/01/17 05:30:35;;;;;;;30.40;18.40;;;1.90;99.90;;;;;;5109114;28;20406;-78
2021/01/17 05:33:08;;;;;;;31.60;18.97;;;1.60;99.90;;;;;;5085347;28;20413;-77
2021/01/17 05:36:01;;;;;;;30.47;18.50;;;2.00;99.90;;;;;;5091529;28;20972;-78
2021/01/17 05:38:41;;;;;;;26.20;17.20;;;1.70;99.90;;;;;;5071534;28;20414;-78
2021/01/17 05:41:33;;;;;;;32.90;17.50;;;1.70;99.90;;;;;;5103320;28;20406;-77
2021/01/17 05:43:58;;;;;;;28.27;16.23;;;1.90;99.90;;;;;;5108335;28;20391;-78
2021/01/17 05:46:27;;;;;;;32.73;19.40;;;1.70;99.90;;;;;;5108755;28;20398;-78
2021/01/17 05:49:33;;;;;;;29.10;16.90;;;1.70;99.90;;;;;;5073290;28;20191;-77
2021/01/17 05:52:25;;;;;;;31.23;18.00;;;1.70;99.90;;;;;;5090333;28;20421;-78
2021/01/17 05:54:51;;;;;;;31.20;19.67;;;1.70;99.90;;;;;;5085690;28;20526;-77
2021/01/17 05:57:25;;;;;;;34.53;20.07;;;1.90;99.90;;;;;;5090312;28;21151;-78
2021/01/17 05:59:58;;;;;;;30.73;19.10;;;1.90;99.90;;;;;;5073862;28;20214;-78
2021/01/17 06:02:36;;;;;;;39.50;19.07;;;1.60;99.90;;;;;;5108510;28;20516;-78
2021/01/17 06:05:08;;;;;;;33.20;19.50;;;2.00;99.90;;;;;;5089715;28;20494;-78
2021/01/17 06:07:53;;;;;;;30.20;17.97;;;1.70;99.90;;;;;;5089275;28;20418;-78
2021/01/17 06:10:28;;;;;;;31.97;18.80;;;1.60;99.90;;;;;;5084854;28;20821;-78
2021/01/17 06:13:04;;;;;;;31.77;19.60;;;1.60;99.90;;;;;;5073312;28;20446;-77
2021/01/17 06:15:53;;;;;;;32.63;18.63;;;1.90;99.90;;;;;;5088169;28;20524;-77
2021/01/17 06:18:32;;;;;;;31.23;17.90;;;1.90;99.90;;;;;;5074228;28;21081;-78
2021/01/17 06:21:15;;;;;;;32.77;18.50;;;1.80;99.90;;;;;;5072278;28;20436;-78
2021/01/17 06:24:04;;;;;;;34.30;19.13;;;1.90;99.90;;;;;;5064306;28;20447;-78
2021/01/17 06:26:44;;;;;;;35.13;18.53;;;1.60;99.90;;;;;;5080469;28;20389;-78
2021/01/17 06:29:17;;;;;;;32.40;18.07;;;1.70;99.90;;;;;;5076966;28;20526;-77
2021/01/17 06:31:52;;;;;;;37.23;20.20;;;1.70;99.90;;;;;;5092771;28;20384;-78
2021/01/17 06:34:26;;;;;;;38.10;19.53;;;1.90;99.90;;;;;;5076715;28;20435;-77
2021/01/17 06:37:21;;;;;;;36.30;19.70;;;1.90;99.90;;;;;;5093849;27;20452;-78
2021/01/17 06:40:09;;;;;;;36.70;20.37;;;1.60;99.90;;;;;;5092808;27;20776;-78
2021/01/17 06:42:40;;;;;;;35.60;18.90;;;1.60;99.90;;;;;;5075826;28;20421;-77
2021/01/17 06:45:23;;;;;;;32.30;19.57;;;1.70;99.90;;;;;;5076070;28;20465;-78
2021/01/17 06:48:00;;;;;;;32.80;18.97;;;1.90;99.90;;;;;;5069763;28;20396;-77
2021/01/17 06:50:49;;;;;;;38.37;19.37;;;2.00;99.90;;;;;;5093211;27;20836;-78
2021/01/17 06:53:25;;;;;;;33.33;18.60;;;2.00;99.90;;;;;;5047656;28;20435;-78
2021/01/17 06:56:15;;;;;;;31.80;16.83;;;1.90;99.90;;;;;;5077042;27;20475;-78
2021/01/17 06:58:52;;;;;;;32.40;18.87;;;1.90;99.90;;;;;;5091520;28;20414;-78
2021/01/17 07:01:32;;;;;;;37.10;20.27;;;1.60;99.90;;;;;;5073188;28;20920;-78
2021/01/17 07:04:30;;;;;;;36.53;19.73;;;1.60;99.90;;;;;;5090766;28;20617;-78
2021/01/17 07:07:31;;;;;;;33.50;18.13;;;1.60;99.90;;;;;;5076360;28;20463;-78
2021/01/17 07:10:05;;;;;;;35.80;20.20;;;1.60;99.90;;;;;;5080503;28;20415;-78
2021/01/17 07:12:55;;;;;;;34.77;19.33;;;1.60;99.90;;;;;;5105345;28;20433;-78
2021/01/17 07:15:29;;;;;;;36.00;18.87;;;1.50;99.90;;;;;;5076827;28;20432;-78
2021/01/17 07:18:19;;;;;;;36.37;20.00;;;1.70;99.90;;;;;;5076294;28;20415;-77
2021/01/17 07:21:02;;;;;;;36.50;19.20;;;1.50;99.90;;;;;;5093979;28;20404;-78
2021/01/17 07:23:30;;;;;;;38.27;19.97;;;1.60;99.90;;;;;;5106838;28;20395;-77
2021/01/17 07:26:01;;;;;;;40.43;20.50;;;1.60;99.90;;;;;;5084917;28;20416;-77
2021/01/17 07:28:33;;;;;;;38.77;22.20;;;1.70;99.90;;;;;;5078511;28;20776;-77
2021/01/17 07:31:17;;;;;;;42.47;21.03;;;1.60;99.90;;;;;;5073910;28;20778;-77
2021/01/17 07:41:02;;;;;;;43.73;21.80;;;1.40;99.90;;;;;;5035613;28;20431;-78
2021/01/17 07:43:39;;;;;;;37.43;19.70;;;1.50;99.90;;;;;;5094134;28;20410;-72
2021/01/17 07:46:08;;;;;;;38.33;19.70;;;1.30;99.90;;;;;;5096794;28;20414;-71
2021/01/17 07:48:34;;;;;;;40.60;20.20;;;1.60;99.90;;;;;;5107386;28;20388;-79
2021/01/17 07:51:15;;;;;;;40.37;22.20;;;1.50;99.90;;;;;;5090520;28;20456;-79
2021/01/17 07:54:29;;;;;;;39.80;20.60;;;1.60;99.90;;;;;;5095322;28;20541;-80
2021/01/17 07:57:19;;;;;;;42.10;22.70;;;1.40;99.90;;;;;;5088204;28;20777;-79
2021/01/17 08:00:13;;;;;;;42.03;19.87;;;1.80;99.90;;;;;;5071039;28;20388;-79
2021/01/17 08:02:39;;;;;;;43.23;20.50;;;1.70;99.90;;;;;;5081579;28;20425;-79
2021/01/17 08:05:05;;;;;;;48.47;22.00;;;1.60;99.90;;;;;;5068392;28;20460;-78
2021/01/17 08:07:34;;;;;;;41.87;22.73;;;1.70;99.90;;;;;;5089218;28;20494;-80
2021/01/17 08:10:07;;;;;;;42.53;21.13;;;2.00;99.90;;;;;;5084896;28;20401;-76
2021/01/17 08:12:41;;;;;;;43.20;20.27;;;1.80;99.90;;;;;;5109808;27;20447;-78
2021/01/17 08:15:22;;;;;;;36.03;19.57;;;2.20;99.90;;;;;;5071204;28;20816;-79
2021/01/17 08:17:50;;;;;;;38.03;21.27;;;2.20;99.90;;;;;;5071175;28;20422;-79
2021/01/17 08:20:27;;;;;;;37.53;19.90;;;2.70;99.90;;;;;;5074714;28;20507;-79
2021/01/17 08:23:11;;;;;;;42.80;21.43;;;2.90;99.90;;;;;;5062264;28;20577;-79
2021/01/17 08:26:05;;;;;;;40.57;22.23;;;3.20;99.90;;;;;;5072113;28;20427;-79
2021/01/17 08:28:58;;;;;;;36.43;19.73;;;3.50;99.90;;;;;;5069216;28;20396;-79
2021/01/17 08:31:49;;;;;;;33.60;19.23;;;3.80;99.90;;;;;;5069456;28;20413;-79
2021/01/17 08:34:31;;;;;;;30.27;18.50;;;4.10;99.90;;;;;;5085495;28;20470;-79
2021/01/17 08:37:16;;;;;;;29.50;17.93;;;4.70;99.90;;;;;;5060753;28;20392;-79
2021/01/17 08:39:54;;;;;;;32.00;18.20;;;5.20;99.90;;;;;;5072850;28;20456;-78
2021/01/17 08:42:41;;;;;;;31.23;19.23;;;5.30;99.90;;;;;;5063469;28;20432;-79
2021/01/17 08:45:25;;;;;;;28.70;17.80;;;5.70;99.90;;;;;;5096500;28;20429;-79
2021/01/17 08:47:57;;;;;;;33.77;18.30;;;5.90;99.90;;;;;;5077726;27;20618;-79
2021/01/17 08:50:35;;;;;;;29.30;16.30;;;6.40;99.90;;;;;;5086347;28;20417;-80
2021/01/17 08:53:24;;;;;;;26.97;17.07;;;6.40;99.90;;;;;;5073257;27;20431;-78
2021/01/17 08:55:58;;;;;;;34.87;18.40;;;6.70;99.90;;;;;;5076245;28;20431;-78
2021/01/17 08:58:35;;;;;;;31.07;18.67;;;7.00;99.90;;;;;;5076341;28;20421;-78
2021/01/17 09:01:05;;;;;;;30.20;18.13;;;7.70;99.90;;;;;;5088217;28;20439;-78
2021/01/17 09:03:41;;;;;;;29.43;18.70;;;8.00;99.90;;;;;;5089353;28;20418;-78
2021/01/17 09:06:13;;;;;;;29.57;18.83;;;7.90;99.90;;;;;;5088069;28;20413;-78
2021/01/17 09:08:53;;;;;;;30.97;18.87;;;8.00;99.90;;;;;;5071523;28;20433;-77
2021/01/17 09:11:39;;;;;;;30.20;18.83;;;8.30;99.90;;;;;;5096898;28;20441;-78
2021/01/17 09:14:18;;;;;;;30.23;18.77;;;8.10;99.90;;;;;;5107764;27;20460;-78
2021/01/17 09:17:06;;;;;;;27.07;16.57;;;8.40;99.90;;;;;;5086010;28;20580;-78
2021/01/17 09:19:57;;;;;;;27.97;17.60;;;8.10;99.90;;;;;;5102585;28;20738;-79
2021/01/17 09:22:24;;;;;;;28.60;18.50;;;8.00;99.90;;;;;;5095476;27;20425;-78
2021/01/17 09:24:51;;;;;;;29.13;19.10;;;8.00;99.90;;;;;;5072098;28;20438;-81
2021/01/17 09:27:18;;;;;;;26.87;16.77;;;8.00;99.90;;;;;;5104236;27;20496;-81
2021/01/17 09:29:53;;;;;;;27.47;18.03;;;8.30;99.90;;;;;;5079451;28;20519;-80
2021/01/17 09:32:19;;;;;;;28.40;18.30;;;8.40;99.90;;;;;;5070344;28;20437;-80
2021/01/17 09:34:49;;;;;;;25.17;17.30;;;8.10;99.90;;;;;;5085596;28;20453;-80
2021/01/17 09:37:16;;;;;;;29.67;20.50;;;8.20;99.90;;;;;;5103994;28;20409;-80
2021/01/17 09:39:45;;;;;;;29.93;19.23;;;7.80;99.90;;;;;;5072347;28;20931;-79
2021/01/17 09:42:13;;;;;;;27.30;18.67;;;7.70;99.90;;;;;;5080778;28;20470;-79
2021/01/17 09:44:40;;;;;;;30.73;19.47;;;7.60;99.90;;;;;;5098153;28;20504;-79
2021/01/17 09:47:16;;;;;;;26.77;17.80;;;7.60;99.90;;;;;;5090712;28;20877;-80
2021/01/17 09:49:42;;;;;;;25.80;16.90;;;7.40;99.90;;;;;;5086555;28;20919;-80
2021/01/17 09:52:16;;;;;;;27.97;17.10;;;7.40;99.90;;;;;;5088458;28;20429;-80
2021/01/17 09:54:54;;;;;;;26.83;19.33;;;7.80;99.90;;;;;;5095158;27;20497;-86
2021/01/17 09:57:22;;;;;;;29.90;18.57;;;7.70;99.90;;;;;;5111020;28;20433;-79
2021/01/17 09:59:54;;;;;;;29.10;18.33;;;7.50;99.90;;;;;;5091917;28;20425;-79
2021/01/17 10:02:25;;;;;;;27.60;18.97;;;7.60;99.90;;;;;;5068663;28;20422;-78
2021/01/17 10:05:03;;;;;;;32.43;18.77;;;7.10;99.90;;;;;;5069033;28;20488;-77
2021/01/17 10:07:36;;;;;;;27.17;17.90;;;7.00;99.90;;;;;;5088139;28;21158;-77
2021/01/17 10:10:10;;;;;;;23.70;17.53;;;7.20;99.90;;;;;;5086389;28;21006;-75
2021/01/17 10:12:37;;;;;;;28.60;18.33;;;6.90;99.90;;;;;;5065432;28;20450;-74
2021/01/17 10:15:12;;;;;;;26.93;16.90;;;6.90;99.90;;;;;;5054923;28;20483;-75
2021/01/17 10:17:48;;;;;;;28.20;18.70;;;6.60;99.90;;;;;;5099378;28;20414;-76
2021/01/17 10:20:38;;;;;;;26.13;16.60;;;6.30;99.90;;;;;;5067539;28;20497;-75
2021/01/17 10:23:12;;;;;;;26.03;15.90;;;6.00;99.90;;;;;;5079114;28;20425;-76
2021/01/17 10:25:38;;;;;;;26.80;16.50;;;6.00;99.90;;;;;;5084125;28;20426;-75
2021/01/17 10:28:06;;;;;;;26.10;15.90;;;6.60;99.90;;;;;;5080727;28;20759;-74
2021/01/17 10:30:34;;;;;;;23.13;15.50;;;6.30;99.90;;;;;;5090139;28;20196;-73
2021/01/17 10:33:05;;;;;;;22.37;14.70;;;6.40;99.90;;;;;;5071124;28;20975;-73
2021/01/17 10:35:54;;;;;;;24.43;15.07;;;6.40;99.90;;;;;;5070612;28;20568;-73
2021/01/17 10:38:20;;;;;;;21.20;13.73;;;7.00;99.90;;;;;;5087398;28;21075;-74
2021/01/17 10:40:50;;;;;;;19.57;13.23;;;7.00;99.90;;;;;;5069496;28;20429;-74
2021/01/17 10:43:30;;;;;;;18.17;13.23;;;7.10;99.90;;;;;;5068132;28;20847;-77
2021/01/17 10:46:22;;;;;;;18.70;11.87;;;7.00;99.90;;;;;;5082354;28;20414;-73
2021/01/17 10:49:05;;;;;;;18.80;13.20;;;7.20;99.90;;;;;;5087390;28;20993;-74
2021/01/17 10:51:41;;;;;;;23.73;14.53;;;7.60;99.90;;;;;;5106009;28;20414;-77
2021/01/17 10:54:19;;;;;;;19.57;13.73;;;7.20;99.90;;;;;;5070794;28;20602;-75
2021/01/17 10:56:46;;;;;;;22.20;14.57;;;7.40;99.90;;;;;;5099631;28;20418;-75
2021/01/17 10:59:14;;;;;;;22.90;16.17;;;7.60;99.90;;;;;;5067703;28;20430;-77
2021/01/17 11:01:47;;;;;;;21.07;15.47;;;7.90;99.90;;;;;;5083019;28;20424;-77
2021/01/17 11:04:16;;;;;;;19.37;14.37;;;8.10;99.90;;;;;;5073789;28;20434;-78
2021/01/17 11:06:48;;;;;;;21.00;14.60;;;8.40;99.90;;;;;;5090505;28;20437;-76
2021/01/17 11:09:15;;;;;;;22.67;15.37;;;8.00;99.90;;;;;;5050170;28;20793;-77
2021/01/17 11:11:46;;;;;;;21.53;15.30;;;8.20;99.90;;;;;;5057745;28;20506;-78
2021/01/17 11:14:14;;;;;;;24.00;16.37;;;8.10;99.90;;;;;;5070884;28;20489;-77
2021/01/17 11:16:49;;;;;;;20.23;14.90;;;8.40;99.90;;;;;;5096472;28;21053;-77
2021/01/17 11:19:15;;;;;;;20.03;15.47;;;8.30;99.90;;;;;;5099789;28;20449;-79
2021/01/17 11:21:45;;;;;;;19.10;14.00;;;8.40;99.90;;;;;;5069379;28;20440;-76
2021/01/17 11:24:12;;;;;;;20.10;13.90;;;8.20;99.90;;;;;;5086540;28;20501;-75
2021/01/17 11:26:39;;;;;;;21.03;15.37;;;8.00;99.90;;;;;;5062889;28;20478;-77
2021/01/17 11:29:14;;;;;;;24.43;16.20;;;8.20;99.90;;;;;;5080354;28;20429;-78
2021/01/17 11:31:47;;;;;;;25.17;16.27;;;8.10;99.90;;;;;;5081568;28;20492;-78
2021/01/17 11:34:16;;;;;;;21.30;15.60;;;7.90;99.90;;;;;;5069953;28;20458;-79
2021/01/17 11:36:57;;;;;;;22.87;16.00;;;8.10;99.90;;;;;;5105080;28;20406;-78
2021/01/17 11:39:26;;;;;;;20.63;14.60;;;8.20;99.90;;;;;;5064081;28;20583;-80
2021/01/17 11:41:54;;;;;;;23.13;16.57;;;7.90;99.90;;;;;;5083602;28;20442;-80
2021/01/17 11:44:22;;;;;;;21.60;15.23;;;8.10;99.90;;;;;;5111034;27;20425;-80
2021/01/17 11:46:49;;;;;;;23.53;16.00;;;7.90;99.90;;;;;;5112601;27;20427;-81
2021/01/17 11:49:15;;;;;;;23.90;15.13;;;7.70;99.90;;;;;;5115951;27;20826;-79
2021/01/17 11:51:41;;;;;;;22.90;16.40;;;7.50;99.90;;;;;;5108452;27;21021;-80
2021/01/17 11:54:16;;;;;;;20.83;14.57;;;7.60;99.90;;;;;;5108406;28;20518;-82
2021/01/17 11:56:42;;;;;;;25.70;16.90;;;7.30;99.90;;;;;;5077352;28;20436;-79
2021/01/17 11:59:10;;;;;;;18.30;12.97;;;7.40;99.90;;;;;;5102503;27;20428;-80
2021/01/17 12:01:36;;;;;;;23.00;15.50;;;7.00;99.90;;;;;;5109158;28;20413;-76
2021/01/17 12:04:04;;;;;;;22.63;14.73;;;6.90;99.90;;;;;;5088697;28;20182;-76
2021/01/17 12:06:30;;;;;;;21.30;13.93;;;6.60;99.90;;;;;;5090208;28;20429;-76
2021/01/17 12:09:00;;;;;;;19.57;14.50;;;6.60;99.90;;;;;;5070304;28;20465;-78
2021/01/17 12:11:46;;;;;;;20.00;13.20;;;6.70;99.90;;;;;;5065775;28;20557;-77
2021/01/17 12:14:22;;;;;;;18.70;13.00;;;6.80;99.90;;;;;;5090973;28;20556;-76
2021/01/17 12:16:54;;;;;;;19.80;14.50;;;6.90;99.90;;;;;;5094925;28;21164;-75
2021/01/17 12:19:21;;;;;;;19.90;13.90;;;6.60;99.90;;;;;;5108051;28;20437;-76
2021/01/17 12:21:49;;;;;;;20.20;14.03;;;6.40;99.90;;;;;;5089644;28;20500;-76
2021/01/17 12:24:16;;;;;;;19.67;13.87;;;6.60;99.90;;;;;;5088314;28;20425;-76
2021/01/17 12:26:43;;;;;;;18.27;13.47;;;6.50;99.90;;;;;;5089938;28;20433;-76
2021/01/17 12:29:13;;;;;;;21.00;13.63;;;6.40;99.90;;;;;;5109502;27;20437;-76
2021/01/17 12:31:45;;;;;;;25.27;15.67;;;6.70;99.90;;;;;;5093150;27;20424;-75
2021/01/17 12:34:14;;;;;;;23.83;15.27;;;6.10;99.90;;;;;;5092949;28;20464;-79
2021/01/17 12:36:44;;;;;;;18.90;13.20;;;6.30;99.90;;;;;;5091021;28;20758;-81
2021/01/17 12:39:15;;;;;;;22.17;15.53;;;6.30;99.90;;;;;;5074144;28;20968;-79
2021/01/17 12:41:48;;;;;;;25.40;15.77;;;6.50;99.90;;;;;;5070715;28;20448;-78
2021/01/17 12:44:15;;;;;;;23.60;15.73;;;6.50;99.90;;;;;;5081156;28;20944;-79
2021/01/17 12:46:45;;;;;;;25.40;15.87;;;6.50;99.90;;;;;;5108460;28;20854;-77
2021/01/17 12:49:13;;;;;;;24.73;15.90;;;6.60;99.90;;;;;;5107336;28;20915;-75
2021/01/17 12:51:39;;;;;;;26.50;16.57;;;6.50;99.90;;;;;;5107111;28;20428;-74
2021/01/17 12:54:05;;;;;;;27.73;17.10;;;6.60;99.90;;;;;;5107171;28;20457;-75
2021/01/17 12:56:34;;;;;;;29.40;16.63;;;6.60;99.90;;;;;;5084218;28;20268;-77
2021/01/17 12:59:01;;;;;;;30.10;16.93;;;6.40;99.90;;;;;;5082642;28;20414;-79
2021/01/17 13:01:26;;;;;;;29.17;19.97;;;6.40;99.90;;;;;;5106901;28;20421;-80
2021/01/17 13:03:52;;;;;;;30.50;19.10;;;6.30;99.90;;;;;;5115040;27;20422;-80
2021/01/17 13:06:18;;;;;;;30.33;19.93;;;6.60;99.90;;;;;;5089304;28;20499;-78
2021/01/17 13:08:46;;;;;;;32.70;19.10;;;6.60;99.90;;;;;;5056078;28;20624;-77
2021/01/17 13:11:14;;;;;;;29.07;18.40;;;6.30;99.90;;;;;;5059195;28;20206;-76
2021/01/17 13:13:42;;;;;;;29.13;17.70;;;6.20;99.90;;;;;;5085411;28;20418;-77
2021/01/17 13:16:16;;;;;;;30.83;17.20;;;6.00;99.90;;;;;;5083939;28;20417;-79
2021/01/17 13:18:42;;;;;;;28.67;16.47;;;6.40;99.90;;;;;;5091260;28;20422;-79
2021/01/17 13:21:08;;;;;;;29.00;17.30;;;6.20;99.90;;;;;;5052589;28;20417;-78
2021/01/17 13:23:34;;;;;;;28.80;16.43;;;6.40;99.90;;;;;;5079675;28;20932;-76
2021/01/17 13:26:03;;;;;;;28.80;16.73;;;6.10;99.90;;;;;;5081487;28;20461;-76
2021/01/17 13:28:29;;;;;;;30.70;17.80;;;6.20;99.90;;;;;;5060554;28;20442;-77